createdAt,value
2023-09-27T00:01:18.992Z,10.60
2023-09-27T00:03:45.885Z,10.70
2023-09-27T00:06:12.972Z,10.80
2023-09-27T00:08:40.007Z,10.80
2023-09-27T00:11:07.809Z,10.90
2023-09-27T00:13:34.693Z,10.90
2023-09-27T00:16:01.546Z,10.90
2023-09-27T00:18:28.847Z,10.90
2023-09-27T00:20:55.638Z,10.90
2023-09-27T00:23:22.440Z,10.90
2023-09-27T00:25:49.882Z,10.80
2023-09-27T00:28:16.748Z,10.80
2023-09-27T00:30:43.735Z,10.70
2023-09-27T00:33:10.602Z,10.70
2023-09-27T00:35:37.536Z,10.80
2023-09-27T00:38:04.594Z,10.80
2023-09-27T00:40:32.261Z,10.80
2023-09-27T00:42:59.112Z,10.70
2023-09-27T00:45:25.878Z,10.60
2023-09-27T00:47:53.218Z,10.50
2023-09-27T00:50:20.245Z,10.50
2023-09-27T00:52:49.035Z,10.50
2023-09-27T00:55:20.799Z,10.60
2023-09-27T00:57:50.520Z,10.60
2023-09-27T01:00:19.091Z,10.70
2023-09-27T01:02:45.969Z,10.70
2023-09-27T01:05:13.230Z,10.80
2023-09-27T01:07:41.357Z,10.80
2023-09-27T01:10:09.797Z,10.80
2023-09-27T01:12:38.236Z,10.80
2023-09-27T01:15:07.457Z,10.90
2023-09-27T01:17:36.325Z,10.90
2023-09-27T01:20:04.155Z,10.90
2023-09-27T01:22:31.782Z,10.80
2023-09-27T01:25:00.994Z,10.70
2023-09-27T01:27:27.965Z,10.60
2023-09-27T01:29:54.778Z,10.60
2023-09-27T01:32:21.667Z,10.50
2023-09-27T01:34:48.634Z,10.60
2023-09-27T01:37:15.476Z,10.70
2023-09-27T01:39:42.324Z,10.60
2023-09-27T01:42:11.956Z,10.50
2023-09-27T01:44:39.228Z,10.50
2023-09-27T01:47:06.223Z,10.50
2023-09-27T01:49:33.214Z,10.60
2023-09-27T01:52:00.215Z,10.60
2023-09-27T01:54:27.044Z,10.70
2023-09-27T01:56:53.851Z,10.70
2023-09-27T01:59:20.689Z,10.70
2023-09-27T02:01:47.555Z,10.80
2023-09-27T02:04:14.903Z,10.80
2023-09-27T02:06:41.774Z,10.80
2023-09-27T02:09:08.572Z,10.80
2023-09-27T02:11:35.379Z,10.80
2023-09-27T02:14:05.354Z,10.90
2023-09-27T02:16:35.470Z,11.00
2023-09-27T02:19:05.810Z,10.90
2023-09-27T02:21:33.450Z,10.90
2023-09-27T02:24:00.279Z,11.00
2023-09-27T02:26:27.090Z,11.00
2023-09-27T02:28:54.116Z,11.10
2023-09-27T02:31:21.275Z,11.10
2023-09-27T02:33:48.124Z,11.30
2023-09-27T02:36:15.079Z,11.30
2023-09-27T02:38:41.919Z,11.30
2023-09-27T02:41:09.074Z,11.40
2023-09-27T02:43:35.885Z,11.30
2023-09-27T02:46:02.696Z,11.30
2023-09-27T02:48:30.269Z,11.30
2023-09-27T02:50:57.123Z,11.30
2023-09-27T02:53:23.974Z,11.30
2023-09-27T02:55:50.809Z,11.30
2023-09-27T02:58:17.613Z,11.30
2023-09-27T03:00:44.490Z,11.30
2023-09-27T03:03:11.454Z,11.30
2023-09-27T03:05:38.524Z,11.30
2023-09-27T03:08:05.724Z,11.30
2023-09-27T03:10:38.262Z,11.30
2023-09-27T03:13:05.634Z,11.40
2023-09-27T03:15:32.751Z,11.40
2023-09-27T03:17:59.665Z,11.40
2023-09-27T03:20:26.544Z,11.40
2023-09-27T03:22:53.382Z,11.40
2023-09-27T03:25:20.473Z,11.50
2023-09-27T03:27:47.639Z,11.60
2023-09-27T03:30:14.870Z,11.70
2023-09-27T03:32:41.630Z,11.80
2023-09-27T03:35:09.740Z,11.80
2023-09-27T03:37:36.698Z,11.80
2023-09-27T03:40:05.180Z,11.80
2023-09-27T03:42:34.507Z,11.80
2023-09-27T03:45:01.275Z,11.80
2023-09-27T03:47:28.155Z,11.70
2023-09-27T03:49:55.061Z,11.70
2023-09-27T03:52:21.829Z,11.80
2023-09-27T03:54:48.577Z,11.80
2023-09-27T03:57:15.408Z,11.80
2023-09-27T03:59:42.199Z,11.80
2023-09-27T04:02:09.027Z,11.80
2023-09-27T04:04:35.969Z,11.80
2023-09-27T04:07:02.905Z,11.90
2023-09-27T04:09:30.171Z,11.90
2023-09-27T04:11:56.948Z,12.00
2023-09-27T04:14:23.837Z,12.10
2023-09-27T04:16:50.622Z,12.10
2023-09-27T04:19:17.383Z,12.20
2023-09-27T04:21:44.117Z,12.20
2023-09-27T04:24:10.894Z,12.20
2023-09-27T04:26:37.692Z,12.20
2023-09-27T04:29:05.662Z,12.20
2023-09-27T04:31:34.496Z,12.20
2023-09-27T04:34:01.316Z,12.20
2023-09-27T04:36:28.208Z,12.20
2023-09-27T04:38:55.140Z,12.10
2023-09-27T04:41:22.099Z,11.90
2023-09-27T04:43:48.928Z,12.00
2023-09-27T04:46:17.679Z,12.00
2023-09-27T04:48:45.453Z,11.90
2023-09-27T04:51:12.285Z,11.90
2023-09-27T04:53:39.496Z,11.90
2023-09-27T04:56:12.670Z,11.80
2023-09-27T04:58:42.958Z,11.80
2023-09-27T05:01:13.272Z,11.80
2023-09-27T05:03:40.215Z,11.80
2023-09-27T05:06:07.219Z,11.80
2023-09-27T05:08:34.092Z,12.00
2023-09-27T05:11:01.079Z,12.00
2023-09-27T05:13:28.133Z,12.10
2023-09-27T05:15:54.930Z,12.00
2023-09-27T05:18:23.843Z,12.00
2023-09-27T05:20:51.196Z,11.90
2023-09-27T05:23:18.148Z,11.90
2023-09-27T05:25:45.481Z,11.90
2023-09-27T05:28:12.312Z,12.00
2023-09-27T05:30:39.123Z,12.00
2023-09-27T05:33:05.966Z,12.10
2023-09-27T05:35:32.985Z,12.10
2023-09-27T05:38:00.120Z,12.10
2023-09-27T05:40:27.207Z,12.10
2023-09-27T05:42:54.023Z,12.10
2023-09-27T05:45:20.940Z,12.20
2023-09-27T05:47:47.936Z,12.20
2023-09-27T05:50:15.021Z,12.20
2023-09-27T05:52:44.953Z,12.20
2023-09-27T05:55:12.340Z,12.30
2023-09-27T05:57:39.784Z,12.30
2023-09-27T06:00:20.186Z,12.30
2023-09-27T06:02:48.553Z,12.40
2023-09-27T06:05:15.540Z,12.40
2023-09-27T06:07:43.862Z,12.40
2023-09-27T06:10:10.742Z,12.40
2023-09-27T06:12:37.786Z,12.40
2023-09-27T06:15:05.139Z,12.50
2023-09-27T06:17:32.281Z,12.50
2023-09-27T06:19:59.234Z,12.60
2023-09-27T06:22:28.192Z,12.70
2023-09-27T06:24:55.131Z,12.70
2023-09-27T06:27:21.963Z,12.60
2023-09-27T06:29:48.764Z,12.60
2023-09-27T06:32:15.578Z,12.80
2023-09-27T06:34:42.454Z,12.80
2023-09-27T06:37:09.234Z,12.80
2023-09-27T06:39:36.003Z,12.90
2023-09-27T06:42:03.626Z,13.00
2023-09-27T06:44:30.540Z,12.90
2023-09-27T06:46:57.694Z,12.90
2023-09-27T06:49:24.670Z,12.80
2023-09-27T06:51:51.575Z,12.90
2023-09-27T06:54:18.401Z,12.90
2023-09-27T06:56:45.257Z,13.10
2023-09-27T06:59:12.176Z,13.30
2023-09-27T07:01:39.106Z,13.30
2023-09-27T07:04:07.081Z,13.20
2023-09-27T07:06:34.105Z,13.20
2023-09-27T07:09:01.353Z,13.00
2023-09-27T07:11:28.291Z,13.10
2023-09-27T07:13:56.982Z,13.20
2023-09-27T07:16:29.785Z,13.10
2023-09-27T07:19:01.079Z,13.10
2023-09-27T07:21:29.224Z,13.10
2023-09-27T07:23:56.355Z,13.30
2023-09-27T07:26:23.235Z,13.40
2023-09-27T07:28:51.756Z,13.40
2023-09-27T07:31:19.195Z,13.50
2023-09-27T07:33:53.713Z,13.60
2023-09-27T07:36:25.302Z,13.80
2023-09-27T07:38:53.429Z,13.90
2023-09-27T07:41:21.605Z,13.90
2023-09-27T07:43:49.299Z,13.90
2023-09-27T07:46:18.857Z,14.00
2023-09-27T07:48:46.146Z,14.10
2023-09-27T07:51:14.114Z,14.20
2023-09-27T07:53:41.753Z,14.30
2023-09-27T07:56:10.683Z,14.40
2023-09-27T07:58:38.342Z,14.30
2023-09-27T08:01:06.057Z,14.30
2023-09-27T08:03:33.257Z,14.30
2023-09-27T08:06:00.482Z,14.30
2023-09-27T08:08:27.854Z,14.40
2023-09-27T08:10:55.059Z,14.40
2023-09-27T08:13:21.958Z,14.60
2023-09-27T08:15:52.622Z,14.60
2023-09-27T08:18:19.650Z,14.70
2023-09-27T08:20:46.605Z,14.90
2023-09-27T08:23:13.534Z,15.30
2023-09-27T08:25:40.409Z,15.50
2023-09-27T08:28:07.866Z,15.60
2023-09-27T08:30:34.863Z,15.70
2023-09-27T08:33:02.473Z,15.90
2023-09-27T08:35:29.678Z,16.00
2023-09-27T08:37:56.598Z,16.30
2023-09-27T08:40:23.581Z,16.30
2023-09-27T08:43:01.080Z,16.70
2023-09-27T08:45:28.793Z,16.80
2023-09-27T08:47:55.924Z,16.60
2023-09-27T08:50:25.694Z,16.40
2023-09-27T08:52:52.773Z,16.30
2023-09-27T08:55:21.034Z,16.50
2023-09-27T08:57:51.114Z,16.60
2023-09-27T09:00:23.352Z,16.80
2023-09-27T09:03:02.564Z,17.10
2023-09-27T09:05:32.099Z,17.50
2023-09-27T09:08:01.614Z,17.60
2023-09-27T09:10:30.176Z,17.60
2023-09-27T09:13:00.505Z,17.60
2023-09-27T09:15:29.905Z,17.70
2023-09-27T09:18:00.355Z,17.80
2023-09-27T09:20:34.439Z,17.80
2023-09-27T09:23:13.677Z,17.80
2023-09-27T09:25:44.987Z,17.80
2023-09-27T09:28:14.610Z,18.00
2023-09-27T09:30:42.111Z,18.00
2023-09-27T09:33:23.606Z,18.00
2023-09-27T09:35:52.786Z,17.90
2023-09-27T09:38:26.313Z,18.20
2023-09-27T09:40:54.605Z,18.20
2023-09-27T09:43:38.800Z,18.30
2023-09-27T09:46:08.194Z,18.40
2023-09-27T09:48:36.357Z,18.60
2023-09-27T09:51:08.683Z,19.00
2023-09-27T09:53:42.159Z,19.30
2023-09-27T09:58:48.651Z,19.30
2023-09-27T10:01:22.854Z,19.30
2023-09-27T10:03:53.325Z,19.50
2023-09-27T10:06:29.670Z,19.80
2023-09-27T10:09:14.889Z,19.70
2023-09-27T10:11:46.537Z,19.70
2023-09-27T10:14:16.872Z,19.80
2023-09-27T10:16:44.654Z,20.00
2023-09-27T10:19:11.823Z,20.10
2023-09-27T10:22:06.256Z,20.50
2023-09-27T10:24:37.110Z,20.90
2023-09-27T10:27:04.274Z,21.10
2023-09-27T10:29:31.255Z,21.30
2023-09-27T10:31:58.094Z,21.40
2023-09-27T10:34:30.876Z,21.30
2023-09-27T10:37:15.595Z,21.30
2023-09-27T10:40:20.923Z,21.40
2023-09-27T10:42:48.565Z,21.80
2023-09-27T10:45:17.924Z,22.10
2023-09-27T10:47:48.077Z,22.30
2023-09-27T10:50:17.624Z,22.00
2023-09-27T10:52:44.455Z,22.20
2023-09-27T10:55:12.930Z,22.20
2023-09-27T10:57:43.080Z,22.20
2023-09-27T11:00:13.484Z,22.30
2023-09-27T11:02:41.137Z,22.70
2023-09-27T11:05:09.478Z,22.90
2023-09-27T11:07:50.373Z,23.10
2023-09-27T11:10:36.156Z,23.30
2023-09-27T11:13:11.490Z,23.30
2023-09-27T11:15:39.061Z,23.30
2023-09-27T11:18:08.431Z,23.30
2023-09-27T11:20:36.358Z,23.20
2023-09-27T11:23:04.207Z,23.30
2023-09-27T11:25:34.649Z,23.30
2023-09-27T11:28:02.069Z,23.40
2023-09-27T11:30:34.755Z,23.40
2023-09-27T11:33:09.025Z,23.50
2023-09-27T11:35:36.119Z,23.50
2023-09-27T11:38:11.048Z,23.60
2023-09-27T11:40:39.579Z,23.60
2023-09-27T11:43:06.752Z,23.70
2023-09-27T11:45:50.507Z,23.80
2023-09-27T11:48:31.428Z,23.50
2023-09-27T11:50:59.752Z,23.30
2023-09-27T11:53:27.520Z,23.30
2023-09-27T11:55:56.460Z,23.30
2023-09-27T11:58:26.323Z,23.10
2023-09-27T12:00:53.363Z,23.20
2023-09-27T12:03:20.302Z,23.30
2023-09-27T12:05:47.923Z,23.10
2023-09-27T12:08:15.115Z,23.20
2023-09-27T12:10:41.956Z,23.40
2023-09-27T12:13:08.759Z,23.40
2023-09-27T12:15:35.633Z,23.60
2023-09-27T12:18:02.776Z,23.40
2023-09-27T12:20:41.449Z,23.70
2023-09-27T12:23:10.833Z,23.90
2023-09-27T12:25:38.492Z,24.20
2023-09-27T12:28:06.001Z,24.50
2023-09-27T12:30:32.856Z,24.90
2023-09-27T12:32:59.946Z,25.20
2023-09-27T12:35:27.454Z,25.50
2023-09-27T12:37:54.542Z,25.30
2023-09-27T12:40:21.549Z,25.70
2023-09-27T12:42:48.431Z,26.30
2023-09-27T12:45:15.237Z,26.70
2023-09-27T12:47:42.884Z,26.80
2023-09-27T12:50:11.039Z,27.10
2023-09-27T12:52:38.227Z,28.00
2023-09-27T12:55:06.474Z,28.30
2023-09-27T12:57:33.707Z,28.50
2023-09-27T13:00:00.732Z,28.30
2023-09-27T13:02:28.319Z,28.60
2023-09-27T13:04:55.507Z,28.80
2023-09-27T13:07:22.393Z,28.70
2023-09-27T13:09:50.253Z,28.10
2023-09-27T13:12:17.304Z,28.10
2023-09-27T13:14:44.184Z,28.60
2023-09-27T13:17:11.481Z,28.80
2023-09-27T13:19:38.555Z,28.40
2023-09-27T13:22:05.496Z,28.50
2023-09-27T13:24:32.675Z,29.30
2023-09-27T13:27:00.189Z,28.80
2023-09-27T13:29:27.442Z,29.60
2023-09-27T13:31:54.380Z,30.50
2023-09-27T13:34:21.190Z,29.60
2023-09-27T13:36:48.003Z,29.30
2023-09-27T13:39:15.497Z,29.60
2023-09-27T13:41:43.782Z,29.90
2023-09-27T13:44:12.084Z,30.20
2023-09-27T13:46:39.171Z,30.90
2023-09-27T13:49:07.361Z,30.80
2023-09-27T13:51:38.207Z,31.50
2023-09-27T13:54:06.329Z,31.90
2023-09-27T13:56:33.606Z,32.30
2023-09-27T13:59:00.764Z,31.90
2023-09-27T14:01:29.598Z,32.00
2023-09-27T14:03:58.170Z,32.30
2023-09-27T14:06:25.063Z,32.20
2023-09-27T14:08:52.542Z,31.90
2023-09-27T14:11:19.781Z,31.70
2023-09-27T14:13:46.659Z,31.40
2023-09-27T14:16:14.367Z,32.30
2023-09-27T14:18:41.821Z,32.30
2023-09-27T14:21:11.747Z,31.50
2023-09-27T14:23:39.114Z,31.80
2023-09-27T14:26:07.367Z,32.30
2023-09-27T14:28:34.311Z,32.60
2023-09-27T14:31:01.234Z,32.70
2023-09-27T14:33:29.334Z,31.80
2023-09-27T14:35:56.974Z,30.50
2023-09-27T14:38:23.861Z,30.80
2023-09-27T14:40:53.559Z,30.80
2023-09-27T14:43:20.438Z,31.30
2023-09-27T14:45:49.593Z,31.10
2023-09-27T14:48:17.659Z,30.70
2023-09-27T14:50:45.578Z,30.80
2023-09-27T14:53:12.347Z,30.80
2023-09-27T14:55:39.230Z,31.90
2023-09-27T14:58:06.434Z,32.30
2023-09-27T15:00:33.441Z,32.40
2023-09-27T15:03:00.920Z,32.70
2023-09-27T15:05:28.258Z,32.50
2023-09-27T15:07:55.235Z,32.50
2023-09-27T15:10:25.190Z,32.30
2023-09-27T15:12:52.068Z,32.10
2023-09-27T15:15:21.239Z,32.10
2023-09-27T15:17:48.166Z,32.30
2023-09-27T15:20:15.820Z,32.50
2023-09-27T15:22:43.097Z,32.70
2023-09-27T15:25:12.236Z,32.10
2023-09-27T15:27:39.300Z,32.10
2023-09-27T15:30:08.993Z,31.90
2023-09-27T15:32:38.263Z,31.90
2023-09-27T15:35:06.092Z,32.10
2023-09-27T15:37:33.071Z,31.90
2023-09-27T15:39:59.856Z,31.80
2023-09-27T15:42:27.009Z,31.70
2023-09-27T15:44:54.304Z,31.80
2023-09-27T15:47:21.174Z,31.50
2023-09-27T15:49:48.056Z,31.40
2023-09-27T15:52:17.727Z,30.90
2023-09-27T15:54:45.236Z,30.60
2023-09-27T15:57:12.326Z,30.80
2023-09-27T15:59:42.339Z,30.60
2023-09-27T16:02:09.491Z,30.40
2023-09-27T16:04:42.121Z,30.10
2023-09-27T16:07:18.162Z,29.80
2023-09-27T16:09:45.561Z,29.00
2023-09-27T16:12:14.848Z,28.10
2023-09-27T16:14:41.827Z,27.30
2023-09-27T16:17:08.817Z,26.60
2023-09-27T16:19:35.698Z,26.10
2023-09-27T16:22:04.809Z,25.50
2023-09-27T16:24:31.733Z,24.80
2023-09-27T16:27:00.764Z,24.40
2023-09-27T16:29:27.910Z,24.10
2023-09-27T16:31:55.590Z,23.60
2023-09-27T16:34:23.143Z,23.30
2023-09-27T16:36:50.180Z,23.10
2023-09-27T16:39:17.151Z,22.80
2023-09-27T16:41:44.257Z,22.60
2023-09-27T16:44:11.198Z,22.40
2023-09-27T16:46:38.317Z,22.30
2023-09-27T16:49:05.323Z,21.90
2023-09-27T16:51:32.332Z,21.50
2023-09-27T16:53:59.229Z,21.40
2023-09-27T16:56:25.974Z,21.20
2023-09-27T16:58:52.813Z,20.90
2023-09-27T17:01:23.104Z,20.60
2023-09-27T17:03:50.143Z,20.30
2023-09-27T17:06:19.402Z,20.20
2023-09-27T17:08:46.329Z,20.00
2023-09-27T17:11:13.101Z,19.80
2023-09-27T17:13:39.940Z,19.50
2023-09-27T17:16:08.410Z,19.30
2023-09-27T17:18:35.325Z,19.20
2023-09-27T17:21:02.458Z,19.10
2023-09-27T17:23:29.611Z,18.90
2023-09-27T17:25:56.678Z,18.80
2023-09-27T17:28:23.529Z,18.70
2023-09-27T17:30:52.253Z,18.50
2023-09-27T17:33:19.456Z,18.40
2023-09-27T17:35:46.319Z,18.20
2023-09-27T17:38:13.251Z,18.10
2023-09-27T17:40:40.467Z,18.00
2023-09-27T17:43:07.260Z,17.90
2023-09-27T17:45:34.048Z,17.80
2023-09-27T17:48:00.994Z,17.70
2023-09-27T17:50:29.732Z,17.50
2023-09-27T17:52:56.569Z,17.40
2023-09-27T17:55:24.025Z,17.40
2023-09-27T17:57:50.897Z,17.40
2023-09-27T18:00:18.842Z,17.10
2023-09-27T18:02:45.829Z,17.00
2023-09-27T18:05:12.671Z,17.00
2023-09-27T18:07:39.711Z,17.10
2023-09-27T18:10:07.142Z,16.90
2023-09-27T18:12:33.973Z,16.80
2023-09-27T18:15:07.305Z,16.70
2023-09-27T18:17:40.485Z,16.40
2023-09-27T18:20:07.866Z,16.00
2023-09-27T18:22:35.346Z,15.80
2023-09-27T18:25:02.127Z,15.90
2023-09-27T18:27:29.917Z,15.90
2023-09-27T18:29:56.733Z,15.90
2023-09-27T18:32:23.718Z,15.80
2023-09-27T18:34:50.602Z,15.70
2023-09-27T18:37:17.382Z,15.50
2023-09-27T18:39:44.706Z,15.30
2023-09-27T18:42:11.498Z,15.20
2023-09-27T18:44:38.280Z,15.10
2023-09-27T18:47:05.260Z,15.20
2023-09-27T18:49:32.216Z,15.30
2023-09-27T18:51:59.135Z,15.30
2023-09-27T18:54:25.864Z,15.30
2023-09-27T18:56:53.722Z,15.30
2023-09-27T18:59:20.742Z,15.30
2023-09-27T19:01:47.714Z,15.10
2023-09-27T19:04:15.389Z,14.80
2023-09-27T19:06:43.068Z,14.80
2023-09-27T19:09:11.417Z,14.80
2023-09-27T19:11:38.277Z,14.80
2023-09-27T19:14:05.278Z,14.80
2023-09-27T19:16:32.470Z,14.50
2023-09-27T19:18:59.858Z,14.30
2023-09-27T19:21:27.166Z,14.20
2023-09-27T19:23:54.355Z,14.00
2023-09-27T19:26:21.606Z,14.20
2023-09-27T19:28:48.432Z,14.20
2023-09-27T19:31:15.295Z,14.20
2023-09-27T19:33:43.311Z,14.00
2023-09-27T19:36:21.023Z,13.90
2023-09-27T19:38:48.860Z,14.00
2023-09-27T19:41:20.717Z,13.80
2023-09-27T19:43:47.530Z,13.80
2023-09-27T19:46:20.640Z,13.80
2023-09-27T19:48:47.462Z,13.80
2023-09-27T19:51:27.628Z,13.70
2023-09-27T19:53:55.938Z,13.80
2023-09-27T19:56:23.204Z,13.90
2023-09-27T19:58:50.330Z,13.80
2023-09-27T20:01:32.530Z,13.80
2023-09-27T20:03:59.958Z,13.80
2023-09-27T20:06:28.563Z,13.90
2023-09-27T20:08:55.677Z,13.90
2023-09-27T20:11:22.698Z,13.90
2023-09-27T20:13:49.988Z,13.70
2023-09-27T20:16:16.859Z,13.10
2023-09-27T20:18:43.672Z,12.90
2023-09-27T20:21:10.509Z,12.90
2023-09-27T20:23:39.165Z,13.10
2023-09-27T20:26:06.447Z,13.10
2023-09-27T20:28:33.407Z,13.10
2023-09-27T20:31:00.214Z,13.00
2023-09-27T20:33:27.096Z,13.00
2023-09-27T20:35:53.884Z,12.90
2023-09-27T20:38:20.676Z,12.90
2023-09-27T20:40:47.809Z,13.00
2023-09-27T20:43:14.653Z,13.00
2023-09-27T20:45:42.671Z,13.00
2023-09-27T20:48:09.473Z,12.90
2023-09-27T20:50:37.262Z,12.80
2023-09-27T20:53:04.278Z,12.80
2023-09-27T20:55:31.762Z,12.80
2023-09-27T20:58:02.339Z,12.80
2023-09-27T21:00:29.453Z,12.80
2023-09-27T21:02:56.897Z,12.80
2023-09-27T21:05:23.772Z,12.80
2023-09-27T21:07:51.294Z,12.80
2023-09-27T21:10:18.240Z,12.80
2023-09-27T21:12:45.054Z,12.70
2023-09-27T21:15:12.035Z,12.30
2023-09-27T21:17:39.014Z,12.20
2023-09-27T21:20:06.470Z,12.00
2023-09-27T21:22:34.618Z,11.90
2023-09-27T21:25:01.446Z,11.80
2023-09-27T21:27:29.223Z,11.90
2023-09-27T21:29:56.065Z,12.00
2023-09-27T21:32:22.897Z,12.10
2023-09-27T21:34:49.748Z,12.10
2023-09-27T21:37:16.624Z,12.10
2023-09-27T21:39:43.766Z,12.10
2023-09-27T21:42:10.559Z,12.00
2023-09-27T21:44:37.316Z,12.00
2023-09-27T21:47:05.254Z,11.80
2023-09-27T21:49:32.125Z,11.80
2023-09-27T21:51:58.895Z,11.80
2023-09-27T21:54:25.680Z,11.80
2023-09-27T21:56:52.463Z,11.90
2023-09-27T21:59:19.223Z,11.90
2023-09-27T22:01:46.078Z,11.90
2023-09-27T22:04:12.960Z,11.80
2023-09-27T22:06:39.961Z,11.50
2023-09-27T22:09:06.861Z,11.30
2023-09-27T22:11:33.756Z,11.10
2023-09-27T22:14:05.720Z,11.00
2023-09-27T22:16:34.243Z,11.00
2023-09-27T22:19:11.841Z,10.90
2023-09-27T22:21:42.638Z,10.80
2023-09-27T22:24:12.333Z,10.80
2023-09-27T22:26:39.485Z,10.80
2023-09-27T22:29:10.264Z,11.00
2023-09-27T22:31:40.582Z,11.10
2023-09-27T22:34:23.934Z,11.10
2023-09-27T22:36:58.700Z,11.20
2023-09-27T22:39:25.436Z,11.20
2023-09-27T22:41:53.584Z,10.90
2023-09-27T22:44:21.692Z,10.90
2023-09-27T22:46:51.454Z,10.80
2023-09-27T22:49:19.946Z,10.90
2023-09-27T22:51:47.534Z,11.00
2023-09-27T22:54:22.405Z,11.10
2023-09-27T22:56:51.715Z,11.10
2023-09-27T22:59:18.556Z,11.10
2023-09-27T23:01:46.967Z,11.10
2023-09-27T23:04:17.081Z,11.10
2023-09-27T23:07:01.242Z,10.90
2023-09-27T23:09:35.800Z,10.70
2023-09-27T23:12:20.520Z,10.40
2023-09-27T23:15:07.127Z,10.30
2023-09-27T23:17:56.033Z,10.40
2023-09-27T23:20:30.173Z,10.60
2023-09-27T23:22:58.525Z,10.60
2023-09-27T23:25:44.204Z,10.80
2023-09-27T23:28:17.723Z,10.80
2023-09-27T23:30:53.873Z,10.90
2023-09-27T23:33:20.693Z,11.10
2023-09-27T23:35:51.201Z,11.00
2023-09-27T23:38:37.721Z,11.20
2023-09-27T23:41:04.952Z,11.30
2023-09-27T23:43:43.147Z,11.30
2023-09-27T23:46:21.263Z,11.20
2023-09-27T23:48:49.008Z,11.30
2023-09-27T23:51:15.800Z,11.20
2023-09-27T23:53:43.071Z,11.20
2023-09-27T23:56:10.916Z,11.30
2023-09-27T23:58:42.554Z,11.40
